createdAt,value
2023-01-27T01:48:52.079Z,79.30
2023-01-27T01:51:32.522Z,72.50
2023-01-27T01:54:07.177Z,74.90
2023-01-27T01:56:43.212Z,68.30
2023-01-27T01:59:20.385Z,65.70
2023-01-27T02:01:51.131Z,58.30
2023-01-27T02:04:24.089Z,51.00
2023-01-27T02:07:12.741Z,47.70
2023-01-27T02:09:41.651Z,49.20
2023-01-27T02:12:10.413Z,47.10
2023-01-27T02:14:40.343Z,46.40
2023-01-27T02:17:10.129Z,46.80
2023-01-27T02:20:19.596Z,49.90
2023-01-27T02:23:07.771Z,51.10
2023-01-27T02:25:41.037Z,49.80
2023-01-27T02:30:38.565Z,49.30
2023-01-27T02:33:15.288Z,46.80
2023-01-27T02:35:44.192Z,40.10
2023-01-27T02:38:14.282Z,41.70
2023-01-27T02:40:44.116Z,42.50
2023-01-27T02:43:14.993Z,46.00
2023-01-27T02:45:47.166Z,55.00
2023-01-27T02:48:16.032Z,49.30
2023-01-27T02:50:44.766Z,58.50
2023-01-27T02:53:13.741Z,54.60
2023-01-27T02:55:43.070Z,53.40
2023-01-27T02:58:12.257Z,57.00
2023-01-27T03:00:49.147Z,51.80
2023-01-27T03:03:18.006Z,53.40
2023-01-27T03:05:47.876Z,53.90
2023-01-27T03:08:17.741Z,53.50
2023-01-27T03:10:50.434Z,55.90
2023-01-27T03:13:23.981Z,55.40
2023-01-27T03:16:14.581Z,53.10
2023-01-27T03:18:47.611Z,53.70
2023-01-27T03:21:17.708Z,47.40
2023-01-27T03:23:49.277Z,47.30
2023-01-27T03:26:21.792Z,48.80
2023-01-27T03:29:14.199Z,44.80
2023-01-27T03:31:44.972Z,39.20
2023-01-27T03:34:13.943Z,38.30
2023-01-27T03:37:07.889Z,35.00
2023-01-27T03:39:55.584Z,37.00
2023-01-27T03:42:43.573Z,37.30
2023-01-27T03:45:31.339Z,40.10
2023-01-27T03:47:59.889Z,42.80
2023-01-27T03:50:38.080Z,45.70
2023-01-27T03:53:07.429Z,49.80
2023-01-27T03:55:36.954Z,50.60
2023-01-27T03:58:20.261Z,47.80
2023-01-27T04:00:54.105Z,49.50
2023-01-27T04:03:42.984Z,53.10
2023-01-27T04:06:33.208Z,55.10
2023-01-27T04:09:02.360Z,50.10
2023-01-27T04:11:49.572Z,45.70
2023-01-27T04:14:18.496Z,47.00
2023-01-27T04:16:47.964Z,46.50
2023-01-27T04:19:16.904Z,46.20
2023-01-27T04:21:45.763Z,42.70
2023-01-27T04:24:18.088Z,41.60
2023-01-27T04:26:47.136Z,49.30
2023-01-27T04:29:16.524Z,38.90
2023-01-27T04:31:45.176Z,39.90
2023-01-27T04:34:14.300Z,38.30
2023-01-27T04:36:43.199Z,34.80
2023-01-27T04:39:12.013Z,32.20
2023-01-27T04:41:41.029Z,33.00
2023-01-27T04:44:10.599Z,32.70
2023-01-27T04:46:39.629Z,35.90
2023-01-27T04:49:08.448Z,34.30
2023-01-27T04:51:37.331Z,37.90
2023-01-27T04:54:06.319Z,37.00
2023-01-27T04:56:37.436Z,33.60
2023-01-27T04:59:11.203Z,34.10
2023-01-27T05:01:39.971Z,33.60
2023-01-27T05:04:08.610Z,32.10
2023-01-27T05:06:38.650Z,30.70
2023-01-27T05:09:07.999Z,31.20
2023-01-27T05:11:36.679Z,33.50
2023-01-27T05:14:08.324Z,34.00
2023-01-27T05:16:38.614Z,31.90
2023-01-27T05:19:08.684Z,35.10
2023-01-27T05:21:38.171Z,34.50
2023-01-27T05:24:06.872Z,34.70
2023-01-27T05:26:37.011Z,33.40
2023-01-27T05:29:05.916Z,38.20
2023-01-27T05:31:35.309Z,35.20
2023-01-27T05:34:04.134Z,30.30
2023-01-27T05:36:34.032Z,30.90
2023-01-27T05:39:02.608Z,28.90
2023-01-27T05:41:31.627Z,30.60
2023-01-27T05:44:00.621Z,28.50
2023-01-27T05:46:30.653Z,30.90
2023-01-27T05:49:00.660Z,32.60
2023-01-27T05:51:30.913Z,32.00
2023-01-27T05:53:59.607Z,37.10
2023-01-27T05:56:28.387Z,34.70
2023-01-27T05:59:01.628Z,33.80
2023-01-27T06:01:31.909Z,37.60
2023-01-27T06:04:00.719Z,36.60
2023-01-27T06:06:30.772Z,38.70
2023-01-27T06:08:59.827Z,36.90
2023-01-27T06:11:28.534Z,39.50
2023-01-27T06:14:02.652Z,55.10
2023-01-27T06:16:33.088Z,50.90
2023-01-27T06:19:01.801Z,54.00
2023-01-27T06:21:31.441Z,52.50
2023-01-27T06:24:00.282Z,54.00
2023-01-27T06:26:29.537Z,59.60
2023-01-27T06:28:58.276Z,58.20
2023-01-27T06:31:27.770Z,54.50
2023-01-27T06:33:56.748Z,53.60
2023-01-27T06:36:25.532Z,51.10
2023-01-27T06:38:55.007Z,51.30
2023-01-27T06:41:25.169Z,48.00
2023-01-27T06:43:53.910Z,50.50
2023-01-27T06:46:22.739Z,58.40
2023-01-27T06:48:53.414Z,52.50
2023-01-27T06:51:22.459Z,166.00
2023-01-27T06:53:51.355Z,99.10
2023-01-27T06:56:20.172Z,65.00
2023-01-27T06:58:48.677Z,51.00
2023-01-27T07:01:17.697Z,49.90
2023-01-27T07:03:46.566Z,49.50
2023-01-27T07:06:16.430Z,49.90
2023-01-27T07:11:16.517Z,71.40
2023-01-27T07:13:45.419Z,57.60
2023-01-27T07:16:14.317Z,61.70
2023-01-27T07:18:43.204Z,64.80
2023-01-27T07:21:11.681Z,66.60
2023-01-27T07:23:40.374Z,64.60
2023-01-27T07:26:23.342Z,65.80
2023-01-27T07:28:53.547Z,60.00
2023-01-27T07:31:22.870Z,59.70
2023-01-27T07:33:53.865Z,61.40
2023-01-27T07:36:22.563Z,58.00
2023-01-27T07:38:51.398Z,58.50
2023-01-27T07:41:20.179Z,65.20
2023-01-27T07:43:51.504Z,64.30
2023-01-27T07:46:21.424Z,66.20
2023-01-27T07:48:50.653Z,69.40
2023-01-27T07:51:21.135Z,66.90
2023-01-27T07:53:49.749Z,67.80
2023-01-27T07:56:18.385Z,73.70
2023-01-27T07:58:47.066Z,62.20
2023-01-27T11:16:02.505Z,67.50
2023-01-27T11:18:33.150Z,70.30
2023-01-27T11:21:06.258Z,68.90
2023-01-27T11:23:39.329Z,69.00
2023-01-27T11:26:44.120Z,70.20
2023-01-27T11:29:23.017Z,73.30
2023-01-27T11:32:19.530Z,68.80
2023-01-27T11:35:01.298Z,70.00
2023-01-27T11:37:41.423Z,63.70
2023-01-27T11:40:17.574Z,65.00
2023-01-27T11:42:46.992Z,64.10
2023-01-27T11:45:20.392Z,65.00
2023-01-27T11:47:51.544Z,63.20
2023-01-27T11:50:21.223Z,64.40
2023-01-27T11:52:51.542Z,59.10
2023-01-27T11:55:27.546Z,58.90
2023-01-27T11:58:26.425Z,64.70
2023-01-27T12:00:57.964Z,58.10
2023-01-27T12:03:42.171Z,62.00
2023-01-27T12:06:17.094Z,72.00
2023-01-27T12:08:46.953Z,62.40
2023-01-27T12:11:26.707Z,55.60
2023-01-27T12:13:57.124Z,53.00
2023-01-27T12:16:49.648Z,54.00
2023-01-27T12:19:33.055Z,46.70
2023-01-27T12:22:07.322Z,41.90
2023-01-27T12:24:38.867Z,40.00
2023-01-27T12:27:07.573Z,36.70
2023-01-27T12:29:47.332Z,36.40
2023-01-27T12:32:18.451Z,35.30
2023-01-27T12:34:50.081Z,36.30
2023-01-27T12:37:31.760Z,35.80
2023-01-27T12:41:16.334Z,37.40
2023-01-27T12:43:52.657Z,35.40
2023-01-27T12:46:23.618Z,33.20
2023-01-27T12:48:55.028Z,33.70
2023-01-27T12:51:25.026Z,35.10
2023-01-27T12:54:14.136Z,32.60
2023-01-27T12:56:44.323Z,33.80
2023-01-27T12:59:17.603Z,35.90
2023-01-27T13:02:16.862Z,33.90
2023-01-27T13:04:53.531Z,33.90
2023-01-27T13:07:30.378Z,37.10
2023-01-27T13:10:03.998Z,38.00
2023-01-27T13:12:48.236Z,32.60
2023-01-27T13:15:19.460Z,33.20
2023-01-27T13:17:56.053Z,31.20
2023-01-27T13:20:42.073Z,28.70
2023-01-27T13:23:21.608Z,29.50
2023-01-27T13:26:07.794Z,32.50
2023-01-27T13:28:55.399Z,30.30
2023-01-27T13:31:33.693Z,33.10
2023-01-27T13:34:37.151Z,31.10
2023-01-27T13:37:15.142Z,32.80
2023-01-27T13:40:19.621Z,33.80
2023-01-27T13:42:52.313Z,37.00
2023-01-27T13:45:40.852Z,36.40
2023-01-27T13:48:27.166Z,37.00
2023-01-27T13:51:04.483Z,37.40
2023-01-27T13:53:34.702Z,35.60
2023-01-27T13:56:06.441Z,34.80
2023-01-27T13:59:12.980Z,33.80
2023-01-27T14:02:20.598Z,34.30
2023-01-27T14:05:21.561Z,31.20
2023-01-27T14:08:02.933Z,34.80
2023-01-27T14:10:41.653Z,40.30
2023-01-27T14:13:38.633Z,40.60
2023-01-27T14:16:28.442Z,37.40
2023-01-27T14:19:26.158Z,32.10
2023-01-27T14:22:00.384Z,33.90
2023-01-27T14:25:00.307Z,31.10
2023-01-27T14:27:37.027Z,29.60
2023-01-27T14:30:18.166Z,29.00
2023-01-27T14:32:53.453Z,29.30
2023-01-27T14:35:52.284Z,29.30
2023-01-27T14:38:29.485Z,30.30
2023-01-27T14:41:07.320Z,38.80
2023-01-27T14:43:58.957Z,36.40
2023-01-27T14:46:37.346Z,32.80
2023-01-27T14:49:09.281Z,30.20
2023-01-27T14:52:01.409Z,34.60
2023-01-27T14:54:45.786Z,31.00
2023-01-27T14:57:26.189Z,37.10
2023-01-27T15:00:20.668Z,41.00
2023-01-27T15:02:59.824Z,37.00
2023-01-27T15:05:31.423Z,35.20
2023-01-27T15:08:12.119Z,31.80
2023-01-27T15:10:51.464Z,31.90
2023-01-27T15:13:30.004Z,31.50
2023-01-27T15:16:09.324Z,31.10
2023-01-27T15:19:03.958Z,31.70
2023-01-27T15:21:46.768Z,30.90
2023-01-27T15:24:42.625Z,30.90
2023-01-27T15:27:21.356Z,28.50
2023-01-27T15:29:50.124Z,30.80
2023-01-27T15:32:20.145Z,29.50
2023-01-27T15:34:53.489Z,28.20
2023-01-27T15:37:28.503Z,30.50
2023-01-27T15:40:04.936Z,33.90
2023-01-27T15:43:00.792Z,36.10
2023-01-27T15:45:32.077Z,41.90
2023-01-27T15:48:20.709Z,48.90
2023-01-27T15:51:00.020Z,52.50
2023-01-27T15:53:32.669Z,49.00
2023-01-27T15:56:09.931Z,48.20
2023-01-27T21:12:02.019Z,34.10
2023-01-27T21:14:34.604Z,32.50
2023-01-27T21:17:05.570Z,34.60
2023-01-27T21:19:34.623Z,34.20
2023-01-27T21:22:03.571Z,32.60
2023-01-27T21:24:32.993Z,33.40
2023-01-27T21:27:01.905Z,33.60
2023-01-27T21:29:32.414Z,35.10
2023-01-27T21:32:01.528Z,34.30
2023-01-27T21:34:30.636Z,36.70
2023-01-27T21:36:59.895Z,37.20
2023-01-27T21:39:28.792Z,38.10
2023-01-27T21:41:57.689Z,35.70
2023-01-27T21:44:50.117Z,33.70
2023-01-27T21:47:19.262Z,35.00
2023-01-27T21:50:04.283Z,33.00
2023-01-27T21:52:39.421Z,33.80
2023-01-27T21:55:22.404Z,31.80
2023-01-27T21:57:52.306Z,36.30
2023-01-27T22:00:23.061Z,36.40
2023-01-27T22:02:56.186Z,34.40
2023-01-27T22:05:24.930Z,36.80
2023-01-27T22:07:54.010Z,36.10
2023-01-27T22:10:26.871Z,34.90
2023-01-27T22:12:59.919Z,34.40
2023-01-27T22:15:29.219Z,33.40
2023-01-27T22:17:58.440Z,33.30
2023-01-27T22:20:27.506Z,33.70
2023-01-27T22:22:56.404Z,36.00
2023-01-27T22:25:27.425Z,34.90
2023-01-27T22:27:56.375Z,31.80
2023-01-27T22:30:25.037Z,32.80
2023-01-27T22:32:53.851Z,34.70
2023-01-27T22:35:22.883Z,31.80
2023-01-27T22:37:53.213Z,32.10
2023-01-27T22:40:23.502Z,34.00
2023-01-27T22:42:52.260Z,31.20
2023-01-27T22:45:21.092Z,33.30
2023-01-27T22:47:50.012Z,34.70
2023-01-27T22:50:19.531Z,38.30
2023-01-27T22:52:48.322Z,38.90
2023-01-27T22:55:17.388Z,41.40
2023-01-27T22:57:48.132Z,43.30
2023-01-27T23:00:17.585Z,46.30
2023-01-27T23:02:46.389Z,48.90
2023-01-27T23:05:15.629Z,49.10
2023-01-27T23:07:45.510Z,46.70
2023-01-27T23:10:14.421Z,44.40
2023-01-27T23:12:43.469Z,45.70
2023-01-27T23:15:12.327Z,44.40
2023-01-27T23:17:43.239Z,40.00
2023-01-27T23:20:12.407Z,44.90
2023-01-27T23:22:41.832Z,40.50
2023-01-27T23:25:11.929Z,38.70
2023-01-27T23:27:41.602Z,36.60
2023-01-27T23:30:11.383Z,39.80
2023-01-27T23:32:40.943Z,40.00
2023-01-27T23:35:09.817Z,40.20
2023-01-27T23:37:38.552Z,38.00
2023-01-27T23:40:08.015Z,42.90
2023-01-27T23:42:36.842Z,38.80
2023-01-27T23:45:05.881Z,37.20
2023-01-27T23:47:34.608Z,34.50
2023-01-27T23:50:03.538Z,33.90
2023-01-27T23:52:35.041Z,32.70
2023-01-27T23:55:04.122Z,29.80
2023-01-27T23:57:33.097Z,31.00
